sensor_id;sensor_type;location;lat;lon;timestamp;temperature;humidity
59234;DHT22;60776;51.702;7.462;2023-06-10T00:00:38;28.90;54.70
59234;DHT22;60776;51.702;7.462;2023-06-10T00:03:11;29.00;54.80
59234;DHT22;60776;51.702;7.462;2023-06-10T00:05:39;28.90;54.70
59234;DHT22;60776;51.702;7.462;2023-06-10T00:08:08;28.90;54.70
59234;DHT22;60776;51.702;7.462;2023-06-10T00:10:37;28.90;54.80
59234;DHT22;60776;51.702;7.462;2023-06-10T00:13:06;28.90;54.80
59234;DHT22;60776;51.702;7.462;2023-06-10T00:18:38;28.90;54.90
59234;DHT22;60776;51.702;7.462;2023-06-10T00:21:07;28.90;54.90
59234;DHT22;60776;51.702;7.462;2023-06-10T00:23:38;28.90;54.80
59234;DHT22;60776;51.702;7.462;2023-06-10T00:26:04;29.00;54.90
59234;DHT22;60776;51.702;7.462;2023-06-10T00:28:30;28.90;54.90
59234;DHT22;60776;51.702;7.462;2023-06-10T00:30:58;28.90;54.90
59234;DHT22;60776;51.702;7.462;2023-06-10T00:33:23;28.90;54.90
59234;DHT22;60776;51.702;7.462;2023-06-10T00:36:04;28.90;54.90
59234;DHT22;60776;51.702;7.462;2023-06-10T00:38:32;28.90;54.90
59234;DHT22;60776;51.702;7.462;2023-06-10T00:41:03;28.90;54.90
59234;DHT22;60776;51.702;7.462;2023-06-10T00:43:41;28.90;54.90
59234;DHT22;60776;51.702;7.462;2023-06-10T00:46:16;28.90;55.00
59234;DHT22;60776;51.702;7.462;2023-06-10T00:48:53;28.90;55.00
59234;DHT22;60776;51.702;7.462;2023-06-10T00:51:27;28.90;55.00
59234;DHT22;60776;51.702;7.462;2023-06-10T00:53:54;28.90;55.00
59234;DHT22;60776;51.702;7.462;2023-06-10T00:56:23;28.90;55.00
59234;DHT22;60776;51.702;7.462;2023-06-10T00:58:51;28.80;55.10
59234;DHT22;60776;51.702;7.462;2023-06-10T01:01:19;28.90;55.10
59234;DHT22;60776;51.702;7.462;2023-06-10T01:03:48;28.90;55.10
59234;DHT22;60776;51.702;7.462;2023-06-10T01:08:55;28.80;55.10
59234;DHT22;60776;51.702;7.462;2023-06-10T01:11:28;28.90;55.10
59234;DHT22;60776;51.702;7.462;2023-06-10T01:14:05;28.80;55.00
59234;DHT22;60776;51.702;7.462;2023-06-10T01:16:45;28.90;55.10
59234;DHT22;60776;51.702;7.462;2023-06-10T01:19:14;28.80;55.10
59234;DHT22;60776;51.702;7.462;2023-06-10T01:21:48;28.80;55.00
59234;DHT22;60776;51.702;7.462;2023-06-10T01:24:20;28.80;55.10
59234;DHT22;60776;51.702;7.462;2023-06-10T01:26:51;28.80;55.10
59234;DHT22;60776;51.702;7.462;2023-06-10T01:29:29;28.80;55.10
59234;DHT22;60776;51.702;7.462;2023-06-10T01:32:09;28.80;55.10
59234;DHT22;60776;51.702;7.462;2023-06-10T01:34:55;28.80;55.10
59234;DHT22;60776;51.702;7.462;2023-06-10T01:37:22;28.80;55.10
59234;DHT22;60776;51.702;7.462;2023-06-10T01:39:50;28.80;55.10
59234;DHT22;60776;51.702;7.462;2023-06-10T01:42:20;28.80;55.10
59234;DHT22;60776;51.702;7.462;2023-06-10T01:44:55;28.80;55.20
59234;DHT22;60776;51.702;7.462;2023-06-10T01:47:26;28.70;55.20
59234;DHT22;60776;51.702;7.462;2023-06-10T01:49:51;28.80;55.20
59234;DHT22;60776;51.702;7.462;2023-06-10T01:52:17;28.70;55.20
59234;DHT22;60776;51.702;7.462;2023-06-10T01:54:43;28.70;55.20
59234;DHT22;60776;51.702;7.462;2023-06-10T01:57:17;28.70;55.20
59234;DHT22;60776;51.702;7.462;2023-06-10T01:59:43;28.70;55.20
59234;DHT22;60776;51.702;7.462;2023-06-10T02:02:12;28.70;55.30
59234;DHT22;60776;51.702;7.462;2023-06-10T02:04:41;28.70;55.30
59234;DHT22;60776;51.702;7.462;2023-06-10T02:07:06;28.70;55.90
59234;DHT22;60776;51.702;7.462;2023-06-10T02:09:35;28.70;55.30
59234;DHT22;60776;51.702;7.462;2023-06-10T02:12:12;28.70;55.30
59234;DHT22;60776;51.702;7.462;2023-06-10T02:14:38;28.70;55.30
59234;DHT22;60776;51.702;7.462;2023-06-10T02:17:04;28.70;55.30
59234;DHT22;60776;51.702;7.462;2023-06-10T02:19:38;28.70;55.30
59234;DHT22;60776;51.702;7.462;2023-06-10T02:22:21;28.70;55.40
59234;DHT22;60776;51.702;7.462;2023-06-10T02:24:47;28.70;55.40
59234;DHT22;60776;51.702;7.462;2023-06-10T02:27:16;28.70;55.40
59234;DHT22;60776;51.702;7.462;2023-06-10T02:29:49;28.70;55.50
59234;DHT22;60776;51.702;7.462;2023-06-10T02:32:17;28.70;55.50
59234;DHT22;60776;51.702;7.462;2023-06-10T02:34:45;28.70;55.50
59234;DHT22;60776;51.702;7.462;2023-06-10T02:37:19;28.70;55.50
59234;DHT22;60776;51.702;7.462;2023-06-10T02:39:58;28.60;55.50
59234;DHT22;60776;51.702;7.462;2023-06-10T02:42:31;28.60;55.50
59234;DHT22;60776;51.702;7.462;2023-06-10T02:44:59;28.60;55.50
59234;DHT22;60776;51.702;7.462;2023-06-10T02:47:29;28.70;55.50
59234;DHT22;60776;51.702;7.462;2023-06-10T02:50:00;28.70;55.60
59234;DHT22;60776;51.702;7.462;2023-06-10T02:52:34;28.60;56.10
59234;DHT22;60776;51.702;7.462;2023-06-10T02:55:00;28.60;55.50
59234;DHT22;60776;51.702;7.462;2023-06-10T02:57:27;28.60;55.50
59234;DHT22;60776;51.702;7.462;2023-06-10T02:59:56;28.60;55.60
59234;DHT22;60776;51.702;7.462;2023-06-10T03:02:29;28.60;55.60
59234;DHT22;60776;51.702;7.462;2023-06-10T03:05:05;28.60;55.60
59234;DHT22;60776;51.702;7.462;2023-06-10T03:07:31;28.60;55.70
59234;DHT22;60776;51.702;7.462;2023-06-10T03:10:08;28.60;55.60
59234;DHT22;60776;51.702;7.462;2023-06-10T03:12:34;28.60;55.60
59234;DHT22;60776;51.702;7.462;2023-06-10T03:15:03;28.60;55.60
59234;DHT22;60776;51.702;7.462;2023-06-10T03:17:43;28.60;55.60
59234;DHT22;60776;51.702;7.462;2023-06-10T03:20:11;28.60;55.70
59234;DHT22;60776;51.702;7.462;2023-06-10T03:22:40;28.60;55.70
59234;DHT22;60776;51.702;7.462;2023-06-10T03:25:07;28.60;55.70
59234;DHT22;60776;51.702;7.462;2023-06-10T03:27:40;28.60;55.80
59234;DHT22;60776;51.702;7.462;2023-06-10T03:30:08;28.60;55.70
59234;DHT22;60776;51.702;7.462;2023-06-10T03:32:36;28.60;55.70
59234;DHT22;60776;51.702;7.462;2023-06-10T03:35:02;28.60;55.70
59234;DHT22;60776;51.702;7.462;2023-06-10T03:37:30;28.60;55.70
59234;DHT22;60776;51.702;7.462;2023-06-10T03:40:08;28.60;55.70
59234;DHT22;60776;51.702;7.462;2023-06-10T03:42:34;28.60;55.70
59234;DHT22;60776;51.702;7.462;2023-06-10T03:45:05;28.60;55.70
59234;DHT22;60776;51.702;7.462;2023-06-10T03:47:34;28.60;55.80
59234;DHT22;60776;51.702;7.462;2023-06-10T03:50:01;28.60;55.70
59234;DHT22;60776;51.702;7.462;2023-06-10T03:52:30;28.60;55.70
59234;DHT22;60776;51.702;7.462;2023-06-10T03:54:58;28.60;55.70
59234;DHT22;60776;51.702;7.462;2023-06-10T03:57:29;28.60;55.60
59234;DHT22;60776;51.702;7.462;2023-06-10T04:00:04;28.60;55.60
59234;DHT22;60776;51.702;7.462;2023-06-10T04:02:44;28.60;55.70
59234;DHT22;60776;51.702;7.462;2023-06-10T04:05:15;28.70;55.60
59234;DHT22;60776;51.702;7.462;2023-06-10T04:07:46;28.70;55.70
59234;DHT22;60776;51.702;7.462;2023-06-10T04:10:16;28.70;55.60
59234;DHT22;60776;51.702;7.462;2023-06-10T04:12:44;28.70;55.60
59234;DHT22;60776;51.702;7.462;2023-06-10T04:15:24;28.70;55.60
59234;DHT22;60776;51.702;7.462;2023-06-10T04:17:51;28.80;55.60
59234;DHT22;60776;51.702;7.462;2023-06-10T04:20:23;28.80;55.50
59234;DHT22;60776;51.702;7.462;2023-06-10T04:23:01;28.80;55.50
59234;DHT22;60776;51.702;7.462;2023-06-10T04:25:32;28.80;55.40
59234;DHT22;60776;51.702;7.462;2023-06-10T04:28:06;28.80;55.40
59234;DHT22;60776;51.702;7.462;2023-06-10T04:30:31;28.90;55.30
59234;DHT22;60776;51.702;7.462;2023-06-10T04:33:00;28.90;55.30
59234;DHT22;60776;51.702;7.462;2023-06-10T04:35:28;28.90;55.20
59234;DHT22;60776;51.702;7.462;2023-06-10T04:37:56;29.00;55.20
59234;DHT22;60776;51.702;7.462;2023-06-10T04:40:22;29.00;55.20
59234;DHT22;60776;51.702;7.462;2023-06-10T04:42:51;29.00;55.20
59234;DHT22;60776;51.702;7.462;2023-06-10T04:45:19;29.10;55.20
59234;DHT22;60776;51.702;7.462;2023-06-10T04:47:47;29.10;55.10
59234;DHT22;60776;51.702;7.462;2023-06-10T04:50:19;29.20;55.00
59234;DHT22;60776;51.702;7.462;2023-06-10T04:52:50;29.20;55.00
59234;DHT22;60776;51.702;7.462;2023-06-10T04:55:18;29.20;54.90
59234;DHT22;60776;51.702;7.462;2023-06-10T04:57:46;29.30;54.90
59234;DHT22;60776;51.702;7.462;2023-06-10T05:00:12;29.30;54.80
59234;DHT22;60776;51.702;7.462;2023-06-10T05:02:43;29.30;54.70
59234;DHT22;60776;51.702;7.462;2023-06-10T05:05:21;29.40;54.80
59234;DHT22;60776;51.702;7.462;2023-06-10T05:07:55;29.40;54.80
59234;DHT22;60776;51.702;7.462;2023-06-10T05:10:21;29.40;54.70
59234;DHT22;60776;51.702;7.462;2023-06-10T05:12:51;29.40;54.60
59234;DHT22;60776;51.702;7.462;2023-06-10T05:15:37;29.50;54.60
59234;DHT22;60776;51.702;7.462;2023-06-10T05:18:08;29.50;54.50
59234;DHT22;60776;51.702;7.462;2023-06-10T05:21:03;29.60;54.50
59234;DHT22;60776;51.702;7.462;2023-06-10T05:23:28;29.60;54.40
59234;DHT22;60776;51.702;7.462;2023-06-10T05:26:00;29.60;54.40
59234;DHT22;60776;51.702;7.462;2023-06-10T05:28:36;29.70;54.40
59234;DHT22;60776;51.702;7.462;2023-06-10T05:31:04;29.70;54.20
59234;DHT22;60776;51.702;7.462;2023-06-10T05:33:30;29.70;54.20
59234;DHT22;60776;51.702;7.462;2023-06-10T05:35:58;29.80;54.00
59234;DHT22;60776;51.702;7.462;2023-06-10T05:38:24;29.80;54.00
59234;DHT22;60776;51.702;7.462;2023-06-10T05:40:55;29.80;54.00
59234;DHT22;60776;51.702;7.462;2023-06-10T05:43:28;29.90;54.10
59234;DHT22;60776;51.702;7.462;2023-06-10T05:46:03;29.90;53.90
59234;DHT22;60776;51.702;7.462;2023-06-10T05:48:36;30.10;53.90
59234;DHT22;60776;51.702;7.462;2023-06-10T05:51:07;30.10;53.70
59234;DHT22;60776;51.702;7.462;2023-06-10T05:53:46;30.20;53.60
59234;DHT22;60776;51.702;7.462;2023-06-10T05:56:13;30.30;53.60
59234;DHT22;60776;51.702;7.462;2023-06-10T05:58:51;30.30;53.40
59234;DHT22;60776;51.702;7.462;2023-06-10T06:01:28;30.50;53.40
59234;DHT22;60776;51.702;7.462;2023-06-10T06:03:54;30.60;53.20
59234;DHT22;60776;51.702;7.462;2023-06-10T06:06:21;30.60;53.10
59234;DHT22;60776;51.702;7.462;2023-06-10T06:08:51;30.70;53.00
59234;DHT22;60776;51.702;7.462;2023-06-10T06:11:19;30.80;53.00
59234;DHT22;60776;51.702;7.462;2023-06-10T06:13:45;30.90;52.80
59234;DHT22;60776;51.702;7.462;2023-06-10T06:16:11;31.00;52.70
59234;DHT22;60776;51.702;7.462;2023-06-10T06:18:43;31.00;52.60
59234;DHT22;60776;51.702;7.462;2023-06-10T06:21:31;31.10;52.40
59234;DHT22;60776;51.702;7.462;2023-06-10T06:23:59;31.20;52.40
59234;DHT22;60776;51.702;7.462;2023-06-10T06:26:27;31.20;52.80
59234;DHT22;60776;51.702;7.462;2023-06-10T06:28:55;31.30;52.10
59234;DHT22;60776;51.702;7.462;2023-06-10T06:31:21;31.30;51.90
59234;DHT22;60776;51.702;7.462;2023-06-10T06:33:49;31.50;52.00
59234;DHT22;60776;51.702;7.462;2023-06-10T06:36:17;31.50;51.80
59234;DHT22;60776;51.702;7.462;2023-06-10T06:38:51;31.60;51.80
59234;DHT22;60776;51.702;7.462;2023-06-10T06:41:28;31.70;51.60
59234;DHT22;60776;51.702;7.462;2023-06-10T06:44:00;31.70;51.50
59234;DHT22;60776;51.702;7.462;2023-06-10T06:46:28;31.80;51.40
59234;DHT22;60776;51.702;7.462;2023-06-10T06:48:54;31.80;51.20
59234;DHT22;60776;51.702;7.462;2023-06-10T06:51:22;31.90;51.10
59234;DHT22;60776;51.702;7.462;2023-06-10T06:53:50;32.00;51.10
59234;DHT22;60776;51.702;7.462;2023-06-10T06:56:16;32.10;50.90
59234;DHT22;60776;51.702;7.462;2023-06-10T06:58:45;32.20;50.80
59234;DHT22;60776;51.702;7.462;2023-06-10T07:01:13;32.30;50.50
59234;DHT22;60776;51.702;7.462;2023-06-10T07:03:41;32.40;50.60
59234;DHT22;60776;51.702;7.462;2023-06-10T07:06:13;32.50;50.60
59234;DHT22;60776;51.702;7.462;2023-06-10T07:08:43;32.50;50.30
59234;DHT22;60776;51.702;7.462;2023-06-10T07:11:34;32.60;50.20
59234;DHT22;60776;51.702;7.462;2023-06-10T07:14:11;32.70;50.00
59234;DHT22;60776;51.702;7.462;2023-06-10T07:16:37;32.80;49.90
59234;DHT22;60776;51.702;7.462;2023-06-10T07:19:11;32.90;49.90
59234;DHT22;60776;51.702;7.462;2023-06-10T07:21:37;32.90;49.60
59234;DHT22;60776;51.702;7.462;2023-06-10T07:24:06;33.10;49.60
59234;DHT22;60776;51.702;7.462;2023-06-10T07:26:43;33.20;50.10
59234;DHT22;60776;51.702;7.462;2023-06-10T07:29:11;33.30;49.40
59234;DHT22;60776;51.702;7.462;2023-06-10T07:31:38;33.40;49.20
59234;DHT22;60776;51.702;7.462;2023-06-10T07:34:04;33.40;49.10
59234;DHT22;60776;51.702;7.462;2023-06-10T07:36:36;33.50;49.00
59234;DHT22;60776;51.702;7.462;2023-06-10T07:39:03;33.60;48.80
59234;DHT22;60776;51.702;7.462;2023-06-10T07:41:28;33.70;48.80
59234;DHT22;60776;51.702;7.462;2023-06-10T07:44:07;33.80;48.70
59234;DHT22;60776;51.702;7.462;2023-06-10T07:46:33;33.90;48.50
59234;DHT22;60776;51.702;7.462;2023-06-10T07:48:59;34.00;48.40
59234;DHT22;60776;51.702;7.462;2023-06-10T07:51:24;34.10;48.30
59234;DHT22;60776;51.702;7.462;2023-06-10T07:53:54;34.10;48.20
59234;DHT22;60776;51.702;7.462;2023-06-10T07:56:20;34.30;48.10
59234;DHT22;60776;51.702;7.462;2023-06-10T07:58:49;34.30;48.00
59234;DHT22;60776;51.702;7.462;2023-06-10T08:01:14;34.40;47.90
59234;DHT22;60776;51.702;7.462;2023-06-10T08:03:40;34.50;47.80
59234;DHT22;60776;51.702;7.462;2023-06-10T08:06:16;34.50;47.60
59234;DHT22;60776;51.702;7.462;2023-06-10T08:08:47;34.70;47.60
59234;DHT22;60776;51.702;7.462;2023-06-10T08:11:19;34.80;47.40
59234;DHT22;60776;51.702;7.462;2023-06-10T08:13:47;34.80;47.00
59234;DHT22;60776;51.702;7.462;2023-06-10T08:16:12;34.90;47.00
59234;DHT22;60776;51.702;7.462;2023-06-10T08:18:41;35.00;47.70
59234;DHT22;60776;51.702;7.462;2023-06-10T08:21:06;35.10;47.10
59234;DHT22;60776;51.702;7.462;2023-06-10T08:23:39;35.10;46.80
59234;DHT22;60776;51.702;7.462;2023-06-10T08:26:08;35.20;46.70
59234;DHT22;60776;51.702;7.462;2023-06-10T08:28:40;35.40;46.60
59234;DHT22;60776;51.702;7.462;2023-06-10T08:31:08;35.50;46.50
59234;DHT22;60776;51.702;7.462;2023-06-10T08:33:36;35.50;46.40
59234;DHT22;60776;51.702;7.462;2023-06-10T08:36:21;35.60;46.40
59234;DHT22;60776;51.702;7.462;2023-06-10T08:38:51;35.70;46.20
59234;DHT22;60776;51.702;7.462;2023-06-10T08:41:17;35.70;46.00
59234;DHT22;60776;51.702;7.462;2023-06-10T08:44:03;35.80;46.00
59234;DHT22;60776;51.702;7.462;2023-06-10T08:46:37;35.80;45.90
59234;DHT22;60776;51.702;7.462;2023-06-10T08:49:05;35.90;45.90
59234;DHT22;60776;51.702;7.462;2023-06-10T08:51:40;36.00;45.90
59234;DHT22;60776;51.702;7.462;2023-06-10T08:54:20;36.10;45.80
59234;DHT22;60776;51.702;7.462;2023-06-10T08:56:57;36.10;45.60
59234;DHT22;60776;51.702;7.462;2023-06-10T08:59:27;36.20;45.40
59234;DHT22;60776;51.702;7.462;2023-06-10T09:02:04;36.20;45.30
59234;DHT22;60776;51.702;7.462;2023-06-10T09:04:30;36.30;45.20
59234;DHT22;60776;51.702;7.462;2023-06-10T09:06:57;36.40;45.20
59234;DHT22;60776;51.702;7.462;2023-06-10T09:09:25;36.40;45.10
59234;DHT22;60776;51.702;7.462;2023-06-10T09:11:55;36.60;45.10
59234;DHT22;60776;51.702;7.462;2023-06-10T09:14:28;36.50;44.90
59234;DHT22;60776;51.702;7.462;2023-06-10T09:16:54;36.60;44.90
59234;DHT22;60776;51.702;7.462;2023-06-10T09:19:27;36.70;44.80
59234;DHT22;60776;51.702;7.462;2023-06-10T09:21:56;36.70;44.60
59234;DHT22;60776;51.702;7.462;2023-06-10T09:24:25;36.80;44.70
59234;DHT22;60776;51.702;7.462;2023-06-10T09:27:05;36.80;44.50
59234;DHT22;60776;51.702;7.462;2023-06-10T09:29:54;36.90;44.30
59234;DHT22;60776;51.702;7.462;2023-06-10T09:32:22;37.00;44.30
59234;DHT22;60776;51.702;7.462;2023-06-10T09:34:49;37.00;44.40
59234;DHT22;60776;51.702;7.462;2023-06-10T09:37:28;37.10;44.20
59234;DHT22;60776;51.702;7.462;2023-06-10T09:40:05;37.20;44.00
59234;DHT22;60776;51.702;7.462;2023-06-10T09:42:35;37.30;43.90
59234;DHT22;60776;51.702;7.462;2023-06-10T09:45:09;37.30;43.80
59234;DHT22;60776;51.702;7.462;2023-06-10T09:47:40;37.40;43.60
59234;DHT22;60776;51.702;7.462;2023-06-10T09:50:06;37.40;43.50
59234;DHT22;60776;51.702;7.462;2023-06-10T09:52:44;37.50;43.60
59234;DHT22;60776;51.702;7.462;2023-06-10T09:55:17;37.50;43.50
59234;DHT22;60776;51.702;7.462;2023-06-10T09:57:49;37.60;43.50
59234;DHT22;60776;51.702;7.462;2023-06-10T10:00:23;37.60;43.50
59234;DHT22;60776;51.702;7.462;2023-06-10T10:02:53;37.60;43.50
59234;DHT22;60776;51.702;7.462;2023-06-10T10:05:29;37.70;43.60
59234;DHT22;60776;51.702;7.462;2023-06-10T10:07:57;37.70;43.60
59234;DHT22;60776;51.702;7.462;2023-06-10T10:10:26;37.70;43.50
59234;DHT22;60776;51.702;7.462;2023-06-10T10:12:56;37.70;43.50
59234;DHT22;60776;51.702;7.462;2023-06-10T10:15:29;37.70;43.40
59234;DHT22;60776;51.702;7.462;2023-06-10T10:18:17;37.70;43.20
59234;DHT22;60776;51.702;7.462;2023-06-10T10:20:53;37.70;43.00
59234;DHT22;60776;51.702;7.462;2023-06-10T10:23:39;37.70;43.20
59234;DHT22;60776;51.702;7.462;2023-06-10T10:26:12;37.80;43.10
59234;DHT22;60776;51.702;7.462;2023-06-10T10:28:58;37.70;43.20
59234;DHT22;60776;51.702;7.462;2023-06-10T10:31:26;37.80;43.10
59234;DHT22;60776;51.702;7.462;2023-06-10T10:34:04;37.80;43.10
59234;DHT22;60776;51.702;7.462;2023-06-10T10:36:31;37.80;42.90
59234;DHT22;60776;51.702;7.462;2023-06-10T10:39:05;37.80;43.00
59234;DHT22;60776;51.702;7.462;2023-06-10T10:41:32;37.80;43.00
59234;DHT22;60776;51.702;7.462;2023-06-10T10:44:03;37.80;43.00
59234;DHT22;60776;51.702;7.462;2023-06-10T10:47:04;37.80;43.00
59234;DHT22;60776;51.702;7.462;2023-06-10T10:49:33;37.80;42.80
59234;DHT22;60776;51.702;7.462;2023-06-10T10:52:11;37.70;43.00
59234;DHT22;60776;51.702;7.462;2023-06-10T10:54:44;37.70;42.90
59234;DHT22;60776;51.702;7.462;2023-06-10T10:57:28;37.70;43.00
59234;DHT22;60776;51.702;7.462;2023-06-10T11:00:01;37.70;42.90
59234;DHT22;60776;51.702;7.462;2023-06-10T11:02:46;37.60;43.00
59234;DHT22;60776;51.702;7.462;2023-06-10T11:05:17;37.60;43.00
59234;DHT22;60776;51.702;7.462;2023-06-10T11:07:59;37.50;43.10
59234;DHT22;60776;51.702;7.462;2023-06-10T11:10:38;37.40;43.20
59234;DHT22;60776;51.702;7.462;2023-06-10T11:13:14;37.30;43.30
59234;DHT22;60776;51.702;7.462;2023-06-10T11:15:50;37.00;43.20
59234;DHT22;60776;51.702;7.462;2023-06-10T11:18:26;36.80;43.40
59234;DHT22;60776;51.702;7.462;2023-06-10T11:21:02;36.50;43.70
59234;DHT22;60776;51.702;7.462;2023-06-10T11:23:53;36.20;44.10
59234;DHT22;60776;51.702;7.462;2023-06-10T11:26:30;35.80;44.40
59234;DHT22;60776;51.702;7.462;2023-06-10T11:29:08;35.50;44.80
59234;DHT22;60776;51.702;7.462;2023-06-10T11:31:48;35.20;45.20
59234;DHT22;60776;51.702;7.462;2023-06-10T11:34:28;34.90;45.50
59234;DHT22;60776;51.702;7.462;2023-06-10T11:37:00;34.60;45.90
59234;DHT22;60776;51.702;7.462;2023-06-10T11:39:30;34.40;46.30
59234;DHT22;60776;51.702;7.462;2023-06-10T11:41:59;34.20;46.60
59234;DHT22;60776;51.702;7.462;2023-06-10T11:44:30;33.90;46.70
59234;DHT22;60776;51.702;7.462;2023-06-10T11:47:08;33.70;47.10
59234;DHT22;60776;51.702;7.462;2023-06-10T11:49:40;33.50;47.40
59234;DHT22;60776;51.702;7.462;2023-06-10T11:52:08;33.30;47.60
59234;DHT22;60776;51.702;7.462;2023-06-10T11:54:59;33.20;47.80
59234;DHT22;60776;51.702;7.462;2023-06-10T11:57:27;33.00;48.20
59234;DHT22;60776;51.702;7.462;2023-06-10T11:59:56;32.90;48.30
59234;DHT22;60776;51.702;7.462;2023-06-10T12:02:35;32.70;48.50
59234;DHT22;60776;51.702;7.462;2023-06-10T12:05:14;32.60;48.70
59234;DHT22;60776;51.702;7.462;2023-06-10T12:07:42;32.50;49.00
59234;DHT22;60776;51.702;7.462;2023-06-10T12:10:11;32.40;49.00
59234;DHT22;60776;51.702;7.462;2023-06-10T12:12:45;32.30;49.20
59234;DHT22;60776;51.702;7.462;2023-06-10T12:15:26;32.20;49.30
59234;DHT22;60776;51.702;7.462;2023-06-10T12:18:02;32.10;49.60
59234;DHT22;60776;51.702;7.462;2023-06-10T12:20:49;32.10;49.80
59234;DHT22;60776;51.702;7.462;2023-06-10T12:23:32;32.00;49.90
59234;DHT22;60776;51.702;7.462;2023-06-10T12:26:01;31.90;50.00
59234;DHT22;60776;51.702;7.462;2023-06-10T12:28:30;31.90;50.20
59234;DHT22;60776;51.702;7.462;2023-06-10T12:31:08;31.90;50.30
59234;DHT22;60776;51.702;7.462;2023-06-10T12:33:39;31.80;50.20
59234;DHT22;60776;51.702;7.462;2023-06-10T12:36:22;31.80;50.20
59234;DHT22;60776;51.702;7.462;2023-06-10T12:38:50;31.70;50.30
59234;DHT22;60776;51.702;7.462;2023-06-10T12:41:20;31.70;50.40
59234;DHT22;60776;51.702;7.462;2023-06-10T12:44:01;31.70;50.50
59234;DHT22;60776;51.702;7.462;2023-06-10T12:46:38;31.60;50.50
59234;DHT22;60776;51.702;7.462;2023-06-10T12:49:04;31.60;50.70
59234;DHT22;60776;51.702;7.462;2023-06-10T12:51:38;31.60;50.60
59234;DHT22;60776;51.702;7.462;2023-06-10T12:54:05;31.60;50.70
59234;DHT22;60776;51.702;7.462;2023-06-10T12:56:31;31.60;50.80
59234;DHT22;60776;51.702;7.462;2023-06-10T12:59:00;31.60;50.80
59234;DHT22;60776;51.702;7.462;2023-06-10T13:01:25;31.50;50.90
59234;DHT22;60776;51.702;7.462;2023-06-10T13:03:51;31.50;50.90
59234;DHT22;60776;51.702;7.462;2023-06-10T13:06:25;31.50;50.90
59234;DHT22;60776;51.702;7.462;2023-06-10T13:08:57;31.50;51.00
59234;DHT22;60776;51.702;7.462;2023-06-10T13:11:23;31.50;51.00
59234;DHT22;60776;51.702;7.462;2023-06-10T13:13:53;31.40;51.10
59234;DHT22;60776;51.702;7.462;2023-06-10T13:16:27;31.40;51.10
59234;DHT22;60776;51.702;7.462;2023-06-10T13:18:59;31.40;51.10
59234;DHT22;60776;51.702;7.462;2023-06-10T13:21:26;31.40;51.20
59234;DHT22;60776;51.702;7.462;2023-06-10T13:24:04;31.40;51.20
59234;DHT22;60776;51.702;7.462;2023-06-10T13:26:32;31.40;51.20
59234;DHT22;60776;51.702;7.462;2023-06-10T13:29:09;31.40;51.20
59234;DHT22;60776;51.702;7.462;2023-06-10T13:31:39;31.40;51.30
59234;DHT22;60776;51.702;7.462;2023-06-10T13:34:10;31.40;51.20
59234;DHT22;60776;51.702;7.462;2023-06-10T13:36:38;31.30;51.20
59234;DHT22;60776;51.702;7.462;2023-06-10T13:39:04;31.40;51.40
59234;DHT22;60776;51.702;7.462;2023-06-10T13:41:40;31.30;51.30
59234;DHT22;60776;51.702;7.462;2023-06-10T13:44:17;31.30;51.40
59234;DHT22;60776;51.702;7.462;2023-06-10T13:46:51;31.30;51.40
59234;DHT22;60776;51.702;7.462;2023-06-10T13:49:25;31.30;51.40
59234;DHT22;60776;51.702;7.462;2023-06-10T13:51:53;31.30;51.40
59234;DHT22;60776;51.702;7.462;2023-06-10T13:54:25;31.30;51.40
59234;DHT22;60776;51.702;7.462;2023-06-10T13:59:22;31.30;46.50
59234;DHT22;60776;51.702;7.462;2023-06-10T14:01:48;31.30;46.90
59234;DHT22;60776;51.702;7.462;2023-06-10T14:04:16;31.40;47.50
59234;DHT22;60776;51.702;7.462;2023-06-10T14:06:42;31.50;46.50
59234;DHT22;60776;51.702;7.462;2023-06-10T14:09:12;31.60;46.80
59234;DHT22;60776;51.702;7.462;2023-06-10T14:11:38;31.80;46.70
59234;DHT22;60776;51.702;7.462;2023-06-10T14:14:04;31.80;46.30
59234;DHT22;60776;51.702;7.462;2023-06-10T14:16:29;31.70;46.50
59234;DHT22;60776;51.702;7.462;2023-06-10T14:19:01;31.60;46.20
59234;DHT22;60776;51.702;7.462;2023-06-10T14:21:27;31.50;47.30
59234;DHT22;60776;51.702;7.462;2023-06-10T14:23:56;31.40;46.60
59234;DHT22;60776;51.702;7.462;2023-06-10T14:26:21;31.40;46.50
59234;DHT22;60776;51.702;7.462;2023-06-10T14:28:48;31.40;46.80
59234;DHT22;60776;51.702;7.462;2023-06-10T14:31:15;31.30;46.70
59234;DHT22;60776;51.702;7.462;2023-06-10T14:33:40;31.40;47.10
59234;DHT22;60776;51.702;7.462;2023-06-10T14:36:07;31.50;47.10
59234;DHT22;60776;51.702;7.462;2023-06-10T14:38:33;31.40;46.90
59234;DHT22;60776;51.702;7.462;2023-06-10T14:40:59;31.50;46.70
59234;DHT22;60776;51.702;7.462;2023-06-10T14:43:30;31.60;46.10
59234;DHT22;60776;51.702;7.462;2023-06-10T14:46:05;31.40;46.60
59234;DHT22;60776;51.702;7.462;2023-06-10T14:48:40;31.40;47.40
59234;DHT22;60776;51.702;7.462;2023-06-10T14:51:09;31.50;46.80
59234;DHT22;60776;51.702;7.462;2023-06-10T14:53:37;31.50;47.30
59234;DHT22;60776;51.702;7.462;2023-06-10T14:56:06;31.40;46.50
59234;DHT22;60776;51.702;7.462;2023-06-10T14:58:32;31.40;47.20
59234;DHT22;60776;51.702;7.462;2023-06-10T15:00:58;31.40;46.80
59234;DHT22;60776;51.702;7.462;2023-06-10T15:03:26;31.40;46.70
59234;DHT22;60776;51.702;7.462;2023-06-10T15:05:52;31.10;47.00
59234;DHT22;60776;51.702;7.462;2023-06-10T15:08:18;31.10;47.30
59234;DHT22;60776;51.702;7.462;2023-06-10T15:10:43;31.10;47.20
59234;DHT22;60776;51.702;7.462;2023-06-10T15:13:12;31.10;47.50
59234;DHT22;60776;51.702;7.462;2023-06-10T15:15:41;31.10;47.00
59234;DHT22;60776;51.702;7.462;2023-06-10T15:18:10;31.10;47.20
59234;DHT22;60776;51.702;7.462;2023-06-10T15:20:36;31.10;47.00
59234;DHT22;60776;51.702;7.462;2023-06-10T15:23:02;31.00;47.30
59234;DHT22;60776;51.702;7.462;2023-06-10T15:25:30;31.00;47.70
59234;DHT22;60776;51.702;7.462;2023-06-10T15:27:56;30.90;47.60
59234;DHT22;60776;51.702;7.462;2023-06-10T15:30:28;30.70;47.80
59234;DHT22;60776;51.702;7.462;2023-06-10T15:32:54;30.70;48.40
59234;DHT22;60776;51.702;7.462;2023-06-10T15:35:19;30.90;48.40
59234;DHT22;60776;51.702;7.462;2023-06-10T15:37:45;31.00;47.80
59234;DHT22;60776;51.702;7.462;2023-06-10T15:40:11;31.00;48.10
59234;DHT22;60776;51.702;7.462;2023-06-10T15:42:37;30.90;47.40
59234;DHT22;60776;51.702;7.462;2023-06-10T15:45:06;30.70;47.60
59234;DHT22;60776;51.702;7.462;2023-06-10T15:47:31;30.70;48.30
59234;DHT22;60776;51.702;7.462;2023-06-10T15:50:00;30.70;48.30
59234;DHT22;60776;51.702;7.462;2023-06-10T15:52:32;30.60;48.00
59234;DHT22;60776;51.702;7.462;2023-06-10T15:55:00;30.60;48.00
59234;DHT22;60776;51.702;7.462;2023-06-10T15:57:29;30.60;48.00
59234;DHT22;60776;51.702;7.462;2023-06-10T15:59:58;30.70;48.30
59234;DHT22;60776;51.702;7.462;2023-06-10T16:02:27;30.70;48.70